createdAt,value
2022-08-20T00:00:36.509Z,83.46
2022-08-20T00:01:38.301Z,83.41
2022-08-20T00:02:43.060Z,83.64
2022-08-20T00:03:51.728Z,83.73
2022-08-20T00:04:55.138Z,83.75
2022-08-20T00:06:17.750Z,84.27
2022-08-20T00:07:19.526Z,84.42
2022-08-20T00:08:22.383Z,84.47
2022-08-20T00:09:24.134Z,84.76
2022-08-20T00:10:27.542Z,84.31
2022-08-20T00:11:29.274Z,84.74
2022-08-20T00:12:31.233Z,84.74
2022-08-20T00:13:46.059Z,84.65
2022-08-20T00:14:47.835Z,85.21
2022-08-20T00:15:49.914Z,85.15
2022-08-20T00:16:51.526Z,85.02
2022-08-20T00:17:54.467Z,84.64
2022-08-20T00:18:56.477Z,84.01
2022-08-20T00:19:58.266Z,84.14
2022-08-20T00:21:01.241Z,85.02
2022-08-20T00:22:03.203Z,84.38
2022-08-20T00:23:10.226Z,84.06
2022-08-20T00:24:12.360Z,83.88
2022-08-20T00:25:14.453Z,84.06
2022-08-20T00:26:17.297Z,83.44
2022-08-20T00:27:18.959Z,83.44
2022-08-20T00:28:21.254Z,83.62
2022-08-20T00:29:22.883Z,84.15
2022-08-20T00:30:26.431Z,84.04
2022-08-20T00:31:28.369Z,84.25
2022-08-20T00:32:30.049Z,84.13
2022-08-20T00:33:32.531Z,84.26
2022-08-20T00:34:34.203Z,84.04
2022-08-20T00:35:40.053Z,84.57
2022-08-20T00:36:41.987Z,84.94
2022-08-20T00:37:43.736Z,84.70
2022-08-20T00:38:46.733Z,84.73
2022-08-20T00:39:48.544Z,84.65
2022-08-20T00:40:54.021Z,84.38
2022-08-20T00:41:55.940Z,83.89
2022-08-20T00:43:00.607Z,84.51
2022-08-20T00:44:22.546Z,84.62
2022-08-20T00:45:27.280Z,85.18
2022-08-20T00:46:31.716Z,85.04
2022-08-20T00:47:34.163Z,85.33
2022-08-20T00:48:38.451Z,85.12
2022-08-20T00:49:40.387Z,85.47
2022-08-20T00:50:42.420Z,85.33
2022-08-20T00:51:48.140Z,85.91
2022-08-20T00:52:52.614Z,86.23
2022-08-20T00:53:58.154Z,85.87
2022-08-20T00:55:01.934Z,86.17
2022-08-20T00:56:06.839Z,86.79
2022-08-20T00:57:21.819Z,87.20
2022-08-20T00:58:24.181Z,87.85
2022-08-20T00:59:30.255Z,88.01
2022-08-20T01:00:38.796Z,88.40
2022-08-20T01:01:55.336Z,87.84
2022-08-20T01:03:01.374Z,87.28
2022-08-20T01:04:03.159Z,86.97
2022-08-20T01:05:08.059Z,86.18
2022-08-20T01:06:11.733Z,86.18
2022-08-20T01:07:13.972Z,85.46
2022-08-20T01:08:19.486Z,85.55
2022-08-20T01:09:49.999Z,85.23
2022-08-20T01:10:48.222Z,85.53
2022-08-20T01:11:50.224Z,85.74
2022-08-20T01:12:59.099Z,85.72
2022-08-20T01:14:28.522Z,85.60
2022-08-20T01:15:31.929Z,85.77
2022-08-20T01:16:33.983Z,85.57
2022-08-20T01:17:39.536Z,85.66
2022-08-20T01:18:42.152Z,85.82
2022-08-20T01:19:49.845Z,86.45
2022-08-20T01:20:56.319Z,86.82
2022-08-20T01:22:00.756Z,86.80
2022-08-20T01:23:24.062Z,87.28
2022-08-20T01:24:40.576Z,87.38
2022-08-20T01:25:57.188Z,87.39
2022-08-20T01:27:02.190Z,86.99
2022-08-20T01:28:04.169Z,86.70
2022-08-20T01:29:11.272Z,86.36
2022-08-20T01:30:12.945Z,86.82
2022-08-20T01:31:23.868Z,87.16
2022-08-20T01:32:25.577Z,87.09
2022-08-20T01:33:27.505Z,86.66
2022-08-20T01:34:29.403Z,87.00
2022-08-20T01:35:36.535Z,86.67
2022-08-20T01:36:46.294Z,86.46
2022-08-20T01:37:48.216Z,86.49
2022-08-20T01:38:54.238Z,86.41
2022-08-20T01:39:56.722Z,86.07
2022-08-20T01:41:14.833Z,86.01
2022-08-20T01:42:24.323Z,86.24
2022-08-20T01:43:26.453Z,86.30
2022-08-20T01:44:29.995Z,86.54
2022-08-20T01:45:33.850Z,86.65
2022-08-20T01:46:43.721Z,86.54
2022-08-20T01:47:46.128Z,86.06
2022-08-20T01:48:53.255Z,86.42
2022-08-20T01:50:00.162Z,86.12
2022-08-20T01:51:18.705Z,86.03
2022-08-20T01:52:52.090Z,85.80
2022-08-20T01:53:55.736Z,86.17
2022-08-20T01:54:57.755Z,85.93
2022-08-20T01:56:01.493Z,86.07
2022-08-20T01:57:10.232Z,86.12
2022-08-20T01:58:12.467Z,86.24
2022-08-20T01:59:14.220Z,86.29
2022-08-20T02:00:20.121Z,85.57
2022-08-20T02:01:34.611Z,85.72
2022-08-20T02:02:47.801Z,85.75
2022-08-20T02:03:50.359Z,85.52
2022-08-20T02:04:52.570Z,85.34
2022-08-20T02:05:54.607Z,85.45
2022-08-20T02:06:58.837Z,85.29
2022-08-20T02:08:00.868Z,85.12
2022-08-20T02:09:05.195Z,85.38
2022-08-20T02:10:09.510Z,85.54
2022-08-20T02:11:11.749Z,85.52
2022-08-20T02:12:14.382Z,85.73
2022-08-20T02:13:16.885Z,85.89
2022-08-20T02:14:18.762Z,86.26
2022-08-20T02:15:34.644Z,86.57
2022-08-20T02:16:41.819Z,86.69
2022-08-20T02:17:43.698Z,87.05
2022-08-20T02:18:45.372Z,87.35
2022-08-20T02:19:52.417Z,87.04
2022-08-20T02:20:54.310Z,86.66
2022-08-20T02:21:59.879Z,86.70
2022-08-20T02:23:01.743Z,86.16
2022-08-20T02:24:04.713Z,86.03
2022-08-20T02:25:10.795Z,86.14
2022-08-20T02:26:12.482Z,86.12
2022-08-20T02:27:14.668Z,86.21
2022-08-20T02:28:19.479Z,85.84
2022-08-20T02:29:21.818Z,85.91
2022-08-20T02:30:33.517Z,86.30
2022-08-20T02:31:36.324Z,86.03
2022-08-20T02:32:45.577Z,85.66
2022-08-20T02:34:21.750Z,85.28
2022-08-20T02:35:12.755Z,85.09
2022-08-20T02:36:15.332Z,85.11
2022-08-20T02:37:18.520Z,85.39
2022-08-20T02:38:20.846Z,85.39
2022-08-20T02:39:22.464Z,85.43
2022-08-20T02:40:31.003Z,85.42
2022-08-20T02:41:34.816Z,85.65
2022-08-20T02:42:39.319Z,85.93
2022-08-20T02:43:41.613Z,85.98
2022-08-20T02:44:43.604Z,85.64
2022-08-20T02:45:45.485Z,85.86
2022-08-20T02:46:50.016Z,86.14
2022-08-20T02:47:56.529Z,86.11
2022-08-20T02:48:59.259Z,86.15
2022-08-20T02:51:05.536Z,87.33
2022-08-20T02:52:07.359Z,87.62
2022-08-20T02:53:09.019Z,87.81
2022-08-20T02:54:11.936Z,88.00
2022-08-20T02:56:38.972Z,87.44
2022-08-20T02:57:43.477Z,87.14
2022-08-20T02:58:46.706Z,87.13
2022-08-20T02:59:49.550Z,87.04
2022-08-20T03:00:51.870Z,86.99
2022-08-20T03:01:59.132Z,87.14
2022-08-20T03:03:02.577Z,87.54
2022-08-20T03:04:04.611Z,88.05
2022-08-20T03:05:07.001Z,88.20
2022-08-20T03:06:10.449Z,88.04
2022-08-20T03:07:12.174Z,87.79
2022-08-20T03:08:14.835Z,88.02
2022-08-20T03:09:16.531Z,88.12
2022-08-20T03:10:18.379Z,88.23
2022-08-20T03:11:20.796Z,88.30
2022-08-20T03:12:22.479Z,88.34
2022-08-20T03:13:24.750Z,88.23
2022-08-20T03:14:26.496Z,88.16
2022-08-20T03:15:33.394Z,87.92
2022-08-20T03:16:35.187Z,88.05
2022-08-20T03:17:37.149Z,88.40
2022-08-20T03:18:42.485Z,87.99
2022-08-20T03:19:44.181Z,88.10
2022-08-20T03:20:47.399Z,88.53
2022-08-20T03:21:54.207Z,88.71
2022-08-20T03:22:57.365Z,88.48
2022-08-20T03:23:59.073Z,88.97
2022-08-20T03:25:00.998Z,89.30
2022-08-20T03:26:05.309Z,89.16
2022-08-20T03:27:07.179Z,89.83
2022-08-20T03:28:10.100Z,90.10
2022-08-20T03:29:12.417Z,90.22
2022-08-20T03:30:15.943Z,89.80
2022-08-20T03:31:17.992Z,89.03
2022-08-20T03:32:19.972Z,88.98
2022-08-20T03:33:21.825Z,88.70
2022-08-20T03:34:23.439Z,88.77
2022-08-20T03:35:27.997Z,88.67
2022-08-20T03:36:30.343Z,88.85
2022-08-20T03:37:33.950Z,88.84
2022-08-20T03:38:35.842Z,88.66
2022-08-20T03:39:38.495Z,88.99
2022-08-20T03:40:41.053Z,88.96
2022-08-20T03:41:42.876Z,89.22
2022-08-20T03:42:45.112Z,89.26
2022-08-20T03:43:47.102Z,89.29
2022-08-20T03:44:49.231Z,89.08
2022-08-20T03:46:01.146Z,89.61
2022-08-20T03:47:07.817Z,89.29
2022-08-20T03:48:15.168Z,89.56
2022-08-20T03:49:16.835Z,89.78
2022-08-20T03:50:23.138Z,90.06
2022-08-20T03:51:25.496Z,89.87
2022-08-20T03:52:29.643Z,89.69
2022-08-20T03:53:34.354Z,89.99
2022-08-20T03:54:36.183Z,90.13
2022-08-20T03:55:37.963Z,90.10
2022-08-20T03:56:39.608Z,90.16
2022-08-20T03:57:50.547Z,90.03
2022-08-20T03:58:52.847Z,90.20
2022-08-20T03:59:58.380Z,90.01
2022-08-20T04:01:01.111Z,89.50
2022-08-20T04:02:03.230Z,89.04
2022-08-20T04:03:08.314Z,88.60
2022-08-20T04:04:12.596Z,88.94
2022-08-20T04:05:14.731Z,88.44
2022-08-20T04:06:18.289Z,88.72
2022-08-20T04:07:25.900Z,88.39
2022-08-20T04:08:29.553Z,88.38
2022-08-20T04:09:31.347Z,88.18
2022-08-20T04:10:33.225Z,88.17
2022-08-20T04:11:34.890Z,88.45
2022-08-20T04:12:40.829Z,88.68
2022-08-20T04:13:50.713Z,89.24
2022-08-20T04:14:53.282Z,89.26
2022-08-20T04:15:58.037Z,89.24
2022-08-20T04:17:04.745Z,89.36
2022-08-20T04:18:09.015Z,89.45
2022-08-20T04:19:10.822Z,89.73
2022-08-20T04:20:15.215Z,90.11
2022-08-20T04:21:16.883Z,89.71
2022-08-20T04:22:18.592Z,89.98
2022-08-20T04:23:22.022Z,89.97
2022-08-20T04:24:32.286Z,90.45
2022-08-20T04:25:36.328Z,90.52
2022-08-20T04:26:38.201Z,90.58
2022-08-20T04:27:40.484Z,90.71
2022-08-20T04:28:42.187Z,91.46
2022-08-20T04:29:44.645Z,91.52
2022-08-20T04:30:51.751Z,91.29
2022-08-20T04:31:53.938Z,91.76
2022-08-20T04:32:56.152Z,91.70
2022-08-20T04:33:57.781Z,91.18
2022-08-20T04:35:00.823Z,90.83
2022-08-20T04:36:05.514Z,90.77
2022-08-20T04:37:16.514Z,90.89
2022-08-20T04:38:21.833Z,90.44
2022-08-20T04:39:23.737Z,90.50
2022-08-20T04:40:44.871Z,89.67
2022-08-20T04:41:46.908Z,89.64
2022-08-20T04:42:48.827Z,90.00
2022-08-20T04:43:56.428Z,90.36
2022-08-20T04:44:58.176Z,90.58
2022-08-20T04:46:02.827Z,90.90
2022-08-20T04:47:04.628Z,90.91
2022-08-20T04:48:11.658Z,90.49
2022-08-20T04:49:16.123Z,90.02
2022-08-20T04:50:18.625Z,90.09
2022-08-20T04:51:22.790Z,90.10
2022-08-20T04:52:25.358Z,90.12
2022-08-20T04:53:28.541Z,90.64
2022-08-20T04:54:31.389Z,91.03
2022-08-20T04:55:35.882Z,91.16
2022-08-20T04:56:40.433Z,91.55
2022-08-20T04:57:42.641Z,91.88
2022-08-20T04:58:48.975Z,92.24
2022-08-20T04:59:52.324Z,91.87
2022-08-20T05:01:01.350Z,91.98
2022-08-20T05:02:03.677Z,91.96
2022-08-20T05:03:07.122Z,91.94
2022-08-20T05:04:08.931Z,91.95
2022-08-20T05:05:10.717Z,91.83
2022-08-20T05:06:12.608Z,91.81
2022-08-20T05:07:15.923Z,91.04
2022-08-20T05:08:20.369Z,90.85
2022-08-20T05:09:22.199Z,90.89
2022-08-20T05:10:24.130Z,90.06
2022-08-20T05:11:35.503Z,90.13
2022-08-20T05:12:38.407Z,90.25
2022-08-20T05:13:42.816Z,90.05
2022-08-20T05:14:44.667Z,90.60
2022-08-20T05:15:47.305Z,90.43
2022-08-20T05:16:50.823Z,90.15
2022-08-20T05:18:00.621Z,90.03
2022-08-20T05:19:02.547Z,90.11
2022-08-20T05:20:05.870Z,89.74
2022-08-20T05:21:07.502Z,89.93
2022-08-20T05:22:09.220Z,90.37
2022-08-20T05:23:13.481Z,90.22
2022-08-20T05:24:16.474Z,90.41
2022-08-20T05:25:18.347Z,90.76
2022-08-20T05:26:20.231Z,90.58
2022-08-20T05:27:27.005Z,90.50
2022-08-20T05:28:32.862Z,90.55
2022-08-20T05:29:38.592Z,90.56
2022-08-20T05:30:43.431Z,90.41
2022-08-20T05:31:45.128Z,90.21
2022-08-20T05:32:48.794Z,90.03
2022-08-20T05:33:51.260Z,90.09
2022-08-20T05:34:54.027Z,90.19
2022-08-20T05:35:56.990Z,90.34
2022-08-20T05:37:00.107Z,90.38
2022-08-20T05:38:02.620Z,90.76
2022-08-20T05:39:04.369Z,90.71
2022-08-20T05:40:11.843Z,90.33
2022-08-20T05:41:13.744Z,90.20
2022-08-20T05:42:31.248Z,90.20
2022-08-20T05:43:33.588Z,90.26
2022-08-20T05:44:37.510Z,90.05
2022-08-20T05:45:41.588Z,89.89
2022-08-20T05:46:45.259Z,89.86
2022-08-20T05:47:48.180Z,90.18
2022-08-20T05:48:59.435Z,90.06
2022-08-20T05:50:05.130Z,89.82
2022-08-20T05:51:12.073Z,89.94
2022-08-20T05:52:16.968Z,90.05
2022-08-20T05:53:19.147Z,89.99
2022-08-20T05:54:21.924Z,90.20
2022-08-20T05:55:24.295Z,90.42
2022-08-20T05:56:26.692Z,90.56
2022-08-20T05:57:29.089Z,90.56
2022-08-20T05:58:32.777Z,90.70
2022-08-20T05:59:36.564Z,90.85
2022-08-20T06:00:38.182Z,90.66
2022-08-20T06:01:41.281Z,90.89
2022-08-20T06:03:01.619Z,91.18
2022-08-20T06:04:22.467Z,91.03
2022-08-20T06:05:24.796Z,90.99
2022-08-20T06:06:44.472Z,90.78
2022-08-20T06:07:50.746Z,90.83
2022-08-20T06:08:56.692Z,90.70
2022-08-20T06:09:58.310Z,90.67
2022-08-20T06:11:00.014Z,90.92
2022-08-20T06:12:06.591Z,91.54
2022-08-20T06:13:08.433Z,91.71
2022-08-20T06:14:16.686Z,91.28
2022-08-20T06:15:18.970Z,91.67
2022-08-20T06:16:20.564Z,91.34
2022-08-20T06:17:22.980Z,91.69
2022-08-20T06:18:27.591Z,91.65
2022-08-20T06:19:32.221Z,91.17
2022-08-20T06:20:38.216Z,90.87
2022-08-20T06:21:41.071Z,91.11
2022-08-20T06:22:42.878Z,91.16
2022-08-20T06:23:58.108Z,90.25
2022-08-20T06:25:04.101Z,91.04
2022-08-20T06:26:09.121Z,91.22
2022-08-20T06:27:15.499Z,90.80
2022-08-20T06:28:18.695Z,90.35
2022-08-20T06:29:21.085Z,90.39
2022-08-20T06:30:22.978Z,90.73
2022-08-20T06:31:25.018Z,90.71
2022-08-20T06:32:28.801Z,90.60
2022-08-20T06:33:34.343Z,90.30
2022-08-20T06:34:36.754Z,90.37
2022-08-20T06:35:38.502Z,90.24
2022-08-20T06:36:40.123Z,90.75
2022-08-20T06:37:43.042Z,90.18
2022-08-20T06:38:46.175Z,90.44
2022-08-20T06:39:48.201Z,90.86
2022-08-20T06:40:50.015Z,91.11
2022-08-20T06:41:51.842Z,91.51
2022-08-20T06:42:55.842Z,91.29
2022-08-20T06:43:57.648Z,90.49
2022-08-20T06:45:00.626Z,90.01
2022-08-20T06:46:02.389Z,90.54
2022-08-20T06:47:05.015Z,90.68
2022-08-20T06:48:10.888Z,90.93
2022-08-20T06:49:17.029Z,91.12
2022-08-20T06:50:22.358Z,90.99
2022-08-20T06:51:24.109Z,90.93
2022-08-20T06:52:29.938Z,90.29
2022-08-20T06:53:47.477Z,90.74
2022-08-20T06:54:49.271Z,90.38
2022-08-20T06:55:54.001Z,91.07
2022-08-20T06:56:56.046Z,91.03
2022-08-20T06:58:03.572Z,90.56
2022-08-20T06:59:05.221Z,90.25
2022-08-20T07:00:10.565Z,90.33
2022-08-20T07:01:13.841Z,90.31
2022-08-20T07:02:16.398Z,90.26
2022-08-20T07:03:18.115Z,90.85
2022-08-20T07:04:19.778Z,90.61
2022-08-20T07:05:21.633Z,90.99
2022-08-20T07:06:27.794Z,90.88
2022-08-20T07:07:29.462Z,91.15
2022-08-20T07:08:31.219Z,91.21
2022-08-20T07:09:32.872Z,91.38
2022-08-20T07:10:34.659Z,90.64
2022-08-20T07:11:36.349Z,90.64
2022-08-20T07:12:38.114Z,90.30
2022-08-20T07:13:41.461Z,90.79
2022-08-20T07:14:43.140Z,90.59
2022-08-20T07:15:45.399Z,90.57
2022-08-20T07:16:47.311Z,90.73
2022-08-20T07:18:00.734Z,90.68
2022-08-20T07:19:03.374Z,90.58
2022-08-20T07:20:07.486Z,90.15
2022-08-20T07:21:09.398Z,90.62
2022-08-20T07:22:12.687Z,90.14
2022-08-20T07:23:14.632Z,90.38
2022-08-20T07:24:16.679Z,89.98
2022-08-20T07:25:20.762Z,89.83
2022-08-20T07:26:23.218Z,89.91
2022-08-20T07:27:25.038Z,89.72
2022-08-20T07:28:32.187Z,90.24
2022-08-20T07:29:53.031Z,89.73
2022-08-20T07:31:15.817Z,89.84
2022-08-20T07:32:39.787Z,90.22
2022-08-20T07:33:47.023Z,90.28
2022-08-20T07:34:52.173Z,90.55
2022-08-20T07:35:54.187Z,90.20
2022-08-20T07:37:00.265Z,90.61
2022-08-20T07:38:02.093Z,90.42
2022-08-20T07:39:06.293Z,90.03
2022-08-20T07:40:13.550Z,90.32
2022-08-20T07:41:15.520Z,90.46
2022-08-20T07:42:17.263Z,90.52
2022-08-20T07:43:19.573Z,90.44
2022-08-20T07:44:22.909Z,90.43
2022-08-20T07:45:32.799Z,90.36
2022-08-20T07:46:34.663Z,90.53
2022-08-20T07:47:42.719Z,90.35
2022-08-20T07:48:50.220Z,90.75
2022-08-20T07:49:52.254Z,90.45
2022-08-20T07:50:55.487Z,90.68
2022-08-20T07:51:58.363Z,90.95
2022-08-20T07:53:00.546Z,90.95
2022-08-20T07:54:02.898Z,91.21
2022-08-20T07:55:07.479Z,91.44
2022-08-20T07:56:15.422Z,91.97
2022-08-20T07:57:18.826Z,92.35
2022-08-20T07:58:27.681Z,92.29
2022-08-20T07:59:35.269Z,92.45
2022-08-20T08:00:37.702Z,92.54
2022-08-20T08:01:39.688Z,92.26
2022-08-20T08:02:41.803Z,91.97
2022-08-20T08:03:49.998Z,92.32
2022-08-20T08:04:52.649Z,92.33
2022-08-20T08:05:56.876Z,91.72
2022-08-20T08:07:00.229Z,91.81
2022-08-20T08:08:06.837Z,91.80
2022-08-20T08:09:13.195Z,91.75
2022-08-20T08:10:20.082Z,91.61
2022-08-20T08:11:21.981Z,91.10
2022-08-20T08:12:28.996Z,90.86
2022-08-20T08:13:35.828Z,90.92
2022-08-20T08:14:38.693Z,90.55
2022-08-20T08:15:46.509Z,90.56
2022-08-20T08:16:48.233Z,90.40
2022-08-20T08:17:52.742Z,90.19
2022-08-20T08:18:58.533Z,90.30
2022-08-20T08:20:00.679Z,90.13
2022-08-20T08:21:02.572Z,89.99
2022-08-20T08:22:13.553Z,89.78
2022-08-20T08:23:27.265Z,89.51
2022-08-20T08:24:34.276Z,89.53
2022-08-20T08:25:35.997Z,89.69
2022-08-20T08:26:38.035Z,90.23
2022-08-20T08:27:40.662Z,90.38
2022-08-20T08:28:44.406Z,90.04
2022-08-20T08:29:46.500Z,90.07
2022-08-20T08:30:49.154Z,89.61
2022-08-20T08:31:50.849Z,89.75
2022-08-20T08:33:11.159Z,90.04
2022-08-20T08:34:13.204Z,90.17
2022-08-20T08:35:15.851Z,90.32
2022-08-20T08:36:17.681Z,90.03
2022-08-20T08:37:19.388Z,89.90
2022-08-20T08:38:23.248Z,90.01
2022-08-20T08:39:25.497Z,90.04
2022-08-20T08:40:35.082Z,90.20
2022-08-20T08:41:39.809Z,90.43
2022-08-20T08:42:46.679Z,89.67
2022-08-20T08:43:53.386Z,89.45
2022-08-20T08:44:55.331Z,89.66
2022-08-20T08:46:06.142Z,89.77
2022-08-20T08:47:18.338Z,89.55
2022-08-20T08:48:20.958Z,89.75
2022-08-20T08:49:37.717Z,89.91
2022-08-20T08:50:53.303Z,89.76
2022-08-20T08:52:11.533Z,89.76
2022-08-20T08:53:22.683Z,89.52
2022-08-20T08:54:28.692Z,89.71
2022-08-20T08:55:31.596Z,89.28
2022-08-20T08:56:35.834Z,89.74
2022-08-20T08:57:37.406Z,89.68
2022-08-20T08:58:40.160Z,89.60
2022-08-20T08:59:58.347Z,90.08
2022-08-20T09:01:52.951Z,89.77
2022-08-20T09:02:35.467Z,89.46
2022-08-20T09:03:40.097Z,90.30
2022-08-20T09:04:43.119Z,90.28
2022-08-20T09:05:54.622Z,89.82
2022-08-20T09:06:56.454Z,89.84
2022-08-20T09:08:02.604Z,89.93
2022-08-20T09:09:07.256Z,89.70
2022-08-20T09:10:09.109Z,88.96
2022-08-20T09:11:10.768Z,89.74
2022-08-20T09:12:19.480Z,90.02
2022-08-20T09:13:21.213Z,89.39
2022-08-20T09:14:24.919Z,89.43
2022-08-20T09:15:27.572Z,89.79
2022-08-20T09:16:45.637Z,90.15
2022-08-20T09:17:51.139Z,89.94
2022-08-20T09:18:52.801Z,89.83
2022-08-20T09:19:54.500Z,90.11
2022-08-20T09:20:56.466Z,90.43
2022-08-20T09:21:58.374Z,90.25
2022-08-20T09:23:00.020Z,89.74
2022-08-20T09:24:01.869Z,90.10
2022-08-20T09:25:04.359Z,90.28
2022-08-20T09:26:06.593Z,90.39
2022-08-20T09:27:08.418Z,90.27
2022-08-20T09:28:10.216Z,90.42
2022-08-20T09:29:14.591Z,90.67
2022-08-20T09:30:17.345Z,90.97
2022-08-20T09:31:20.523Z,91.16
2022-08-20T09:32:26.135Z,91.19
2022-08-20T09:33:27.922Z,91.23
2022-08-20T09:34:29.999Z,90.79
2022-08-20T09:35:31.744Z,90.90
2022-08-20T09:36:33.977Z,91.18
2022-08-20T09:37:37.718Z,91.10
2022-08-20T09:38:39.633Z,91.20
2022-08-20T09:39:41.835Z,91.34
2022-08-20T09:40:44.471Z,90.72
2022-08-20T09:41:46.346Z,90.40
2022-08-20T09:42:49.306Z,90.11
2022-08-20T09:43:51.059Z,90.20
2022-08-20T09:44:53.175Z,89.74
2022-08-20T09:45:54.820Z,89.88
2022-08-20T09:46:56.470Z,89.16
2022-08-20T09:47:58.990Z,88.80
2022-08-20T09:49:01.669Z,88.72
2022-08-20T09:50:04.715Z,88.50
2022-08-20T09:51:06.477Z,88.32
2022-08-20T09:52:10.512Z,88.73
2022-08-20T09:53:12.942Z,88.82
2022-08-20T09:54:14.566Z,89.13
2022-08-20T09:55:36.938Z,88.98
2022-08-20T09:56:38.592Z,88.83
2022-08-20T09:57:40.594Z,88.67
2022-08-20T09:58:51.206Z,87.79
2022-08-20T10:00:14.278Z,87.60
2022-08-20T10:01:18.913Z,87.98
2022-08-20T10:02:20.627Z,87.48
2022-08-20T10:03:22.412Z,86.90
2022-08-20T10:04:24.194Z,86.65
2022-08-20T10:05:26.082Z,86.23
2022-08-20T10:06:27.846Z,85.14
2022-08-20T10:07:29.639Z,84.65
2022-08-20T10:08:31.427Z,84.30
2022-08-20T10:09:34.047Z,83.77
2022-08-20T10:10:36.395Z,83.86
2022-08-20T10:11:38.207Z,84.13
2022-08-20T10:12:41.799Z,84.23
2022-08-20T10:13:43.581Z,83.88
2022-08-20T10:14:45.205Z,83.60
2022-08-20T10:15:46.981Z,83.23
2022-08-20T10:16:56.027Z,82.24
2022-08-20T10:18:05.505Z,82.43
2022-08-20T10:19:07.596Z,83.01
2022-08-20T10:20:13.311Z,82.61
2022-08-20T10:21:16.273Z,82.75
2022-08-20T10:22:17.926Z,82.99
2022-08-20T10:23:19.663Z,83.43
2022-08-20T10:24:21.843Z,83.72
2022-08-20T10:25:24.125Z,84.32
2022-08-20T10:26:25.981Z,84.17
2022-08-20T10:27:28.933Z,84.17
2022-08-20T10:28:30.525Z,84.24
2022-08-20T10:29:32.538Z,84.53
2022-08-20T10:30:35.033Z,84.42
2022-08-20T10:31:36.853Z,85.20
2022-08-20T10:32:38.517Z,85.75
2022-08-20T10:33:41.142Z,85.85
2022-08-20T10:34:45.388Z,85.77
2022-08-20T10:35:47.297Z,85.71
2022-08-20T10:36:49.630Z,85.91
2022-08-20T10:37:51.901Z,85.24
2022-08-20T10:38:53.675Z,85.72
2022-08-20T10:39:56.105Z,85.66
2022-08-20T10:40:57.948Z,85.64
2022-08-20T10:41:59.786Z,84.71
2022-08-20T10:43:01.943Z,83.95
2022-08-20T10:44:04.485Z,84.90
2022-08-20T10:45:06.343Z,85.19
2022-08-20T10:46:08.047Z,84.81
2022-08-20T10:47:17.553Z,84.76
2022-08-20T10:48:21.499Z,85.22
2022-08-20T10:49:23.717Z,85.10
2022-08-20T10:50:25.478Z,84.09
2022-08-20T10:51:32.902Z,85.46
2022-08-20T10:52:34.734Z,85.55
2022-08-20T10:53:36.426Z,85.83
2022-08-20T10:54:42.133Z,84.96
2022-08-20T10:55:43.977Z,85.37
2022-08-20T10:56:45.648Z,85.23
2022-08-20T10:57:47.657Z,85.48
2022-08-20T10:58:49.368Z,85.36
2022-08-20T10:59:53.519Z,84.73
2022-08-20T11:00:55.190Z,85.27
2022-08-20T11:01:57.154Z,85.06
2022-08-20T11:02:58.855Z,85.01
2022-08-20T11:04:00.730Z,84.68
2022-08-20T11:05:02.484Z,84.37
2022-08-20T11:06:04.320Z,84.44
2022-08-20T11:07:50.506Z,85.13
2022-08-20T11:08:48.447Z,85.45
2022-08-20T11:09:50.734Z,84.77
2022-08-20T11:10:53.121Z,84.80
2022-08-20T11:11:54.742Z,84.83
2022-08-20T11:12:56.948Z,84.61
2022-08-20T11:13:58.691Z,84.18
2022-08-20T11:15:00.617Z,84.64
2022-08-20T11:16:03.685Z,84.65
2022-08-20T11:17:06.781Z,84.84
2022-08-20T11:19:10.562Z,84.99
2022-08-20T11:22:36.955Z,84.92
2022-08-20T11:25:05.797Z,85.54
2022-08-20T11:27:36.774Z,86.38
2022-08-20T11:30:08.714Z,87.14
2022-08-20T11:32:35.419Z,86.95
2022-08-20T11:35:18.898Z,86.88
2022-08-20T11:37:51.216Z,85.69
2022-08-20T11:40:18.335Z,85.37
2022-08-20T11:43:12.602Z,84.64
2022-08-20T11:45:31.955Z,84.06
2022-08-20T11:48:04.912Z,83.53
2022-08-20T11:50:31.708Z,84.84
2022-08-20T11:52:58.617Z,84.31
2022-08-20T11:55:30.534Z,85.34
2022-08-20T11:57:59.972Z,84.73
2022-08-20T12:00:33.086Z,85.29
2022-08-20T12:03:08.606Z,85.60
2022-08-20T12:05:36.379Z,86.03
2022-08-20T12:08:04.281Z,86.63
2022-08-20T12:10:31.338Z,87.49
2022-08-20T12:12:58.458Z,87.82
2022-08-20T12:15:26.715Z,87.71
2022-08-20T12:17:54.555Z,87.89
2022-08-20T12:20:23.326Z,88.34
2022-08-20T12:22:50.055Z,88.43
2022-08-20T12:25:17.140Z,89.15
2022-08-20T12:27:43.847Z,88.80
2022-08-20T12:30:15.141Z,89.05
2022-08-20T12:32:42.491Z,89.15
2022-08-20T12:35:11.001Z,88.71
2022-08-20T12:37:38.044Z,88.99
2022-08-20T12:40:08.494Z,89.11
2022-08-20T12:42:35.706Z,89.10
2022-08-20T12:45:03.700Z,87.50
2022-08-20T12:47:36.303Z,87.50
2022-08-20T12:50:06.147Z,87.72
2022-08-20T12:52:32.940Z,87.09
2022-08-20T12:55:00.234Z,86.81
2022-08-20T12:57:31.200Z,86.52
2022-08-20T13:00:00.278Z,86.04
2022-08-20T13:02:28.165Z,86.05
2022-08-20T13:04:54.848Z,85.76
2022-08-20T13:07:24.021Z,85.83
2022-08-20T13:09:51.909Z,85.98
2022-08-20T13:12:18.864Z,86.15
2022-08-20T13:14:46.799Z,86.54
2022-08-20T13:17:17.633Z,87.29
2022-08-20T13:19:45.375Z,86.71
2022-08-20T13:22:13.595Z,87.74
2022-08-20T13:24:40.595Z,87.82
2022-08-20T13:27:10.331Z,88.79
2022-08-20T13:29:37.785Z,88.30
2022-08-20T13:32:05.819Z,88.42
2022-08-20T13:34:32.591Z,87.61
2022-08-20T13:36:59.509Z,86.79
2022-08-20T13:39:26.275Z,85.40
2022-08-20T13:41:52.912Z,83.96
2022-08-20T13:44:19.765Z,83.66
2022-08-20T13:46:47.656Z,84.23
2022-08-20T13:49:14.529Z,84.62
2022-08-20T13:51:41.146Z,83.22
2022-08-20T13:54:08.035Z,82.53
2022-08-20T13:56:37.493Z,83.55
2022-08-20T13:59:04.166Z,83.62
2022-08-20T14:01:31.100Z,83.57
2022-08-20T14:03:57.814Z,83.15
2022-08-20T14:06:24.625Z,83.48
2022-08-20T14:08:51.370Z,83.88
2022-08-20T14:11:19.251Z,83.89
2022-08-20T14:13:45.922Z,84.61
2022-08-20T14:16:21.338Z,84.38
2022-08-20T14:18:56.220Z,85.41
2022-08-20T14:21:22.963Z,86.13
2022-08-20T14:23:49.667Z,86.54
2022-08-20T14:26:16.533Z,86.34
2022-08-20T14:28:43.299Z,86.65
2022-08-20T14:31:09.926Z,87.79
2022-08-20T14:33:37.803Z,87.88
2022-08-20T14:36:07.458Z,87.88
2022-08-20T14:38:34.079Z,87.66
2022-08-20T14:41:00.880Z,87.70
2022-08-20T14:43:27.655Z,87.23
2022-08-20T14:45:54.337Z,87.16
2022-08-20T14:48:21.106Z,87.50
2022-08-20T14:50:47.776Z,87.43
2022-08-20T14:53:14.617Z,87.43
2022-08-20T14:55:41.707Z,86.62
2022-08-20T14:58:10.440Z,86.01
2022-08-20T15:00:37.861Z,86.25
2022-08-20T15:03:04.781Z,86.61
2022-08-20T15:05:32.073Z,86.32
2022-08-20T15:07:59.393Z,86.38
2022-08-20T15:10:29.164Z,86.44
2022-08-20T15:12:56.048Z,86.44
2022-08-20T15:15:23.974Z,86.51
2022-08-20T15:17:54.997Z,86.25
2022-08-20T15:20:25.177Z,86.59
2022-08-20T15:22:52.758Z,86.58
2022-08-20T15:25:24.214Z,86.63
2022-08-20T15:27:54.148Z,86.62
2022-08-20T15:30:25.502Z,86.56
2022-08-20T15:32:54.981Z,86.57
2022-08-20T15:35:24.593Z,87.11
2022-08-20T15:37:51.630Z,86.05
2022-08-20T15:40:27.254Z,86.25
2022-08-20T15:42:56.581Z,85.89
2022-08-20T15:45:23.419Z,85.86
2022-08-20T15:48:17.159Z,85.10
2022-08-20T15:51:05.103Z,85.67
2022-08-20T15:54:10.513Z,85.42
2022-08-20T15:56:37.085Z,85.90
2022-08-20T15:59:06.930Z,86.47
2022-08-20T16:01:48.414Z,87.36
2022-08-20T16:05:00.080Z,87.45
2022-08-20T16:07:38.643Z,86.75
2022-08-20T16:10:18.605Z,87.36
2022-08-20T16:12:51.540Z,87.13
2022-08-20T16:15:23.860Z,87.38
2022-08-20T16:17:59.115Z,86.60
2022-08-20T16:20:35.699Z,86.59
2022-08-20T16:23:04.006Z,86.48
2022-08-20T16:25:39.560Z,85.61
2022-08-20T16:28:56.697Z,85.58
2022-08-20T16:31:28.633Z,85.49
2022-08-20T16:34:33.507Z,85.12
2022-08-20T16:37:10.103Z,84.98
2022-08-20T16:40:22.324Z,84.80
2022-08-20T16:42:52.549Z,84.07
2022-08-20T16:45:27.117Z,84.03
2022-08-20T16:48:00.219Z,84.15
2022-08-20T16:50:35.171Z,84.42
2022-08-20T16:53:01.976Z,84.45
2022-08-20T16:55:28.730Z,84.65
2022-08-20T16:57:55.639Z,84.74
2022-08-20T17:00:30.489Z,84.50
2022-08-20T17:03:06.341Z,84.31
2022-08-20T17:05:47.433Z,83.93
2022-08-20T17:08:22.379Z,83.97
2022-08-20T17:11:08.929Z,83.93
2022-08-20T17:13:38.564Z,83.72
2022-08-20T17:16:08.348Z,84.41
2022-08-20T17:18:38.089Z,84.52
2022-08-20T17:21:12.297Z,85.21
2022-08-20T17:23:55.494Z,85.16
2022-08-20T17:26:44.080Z,85.30